createdAt,value
2022-10-29T00:00:07.125Z,100.00
2022-10-29T00:01:14.584Z,100.00
2022-10-29T00:02:16.615Z,100.00
2022-10-29T00:03:22.541Z,100.00
2022-10-29T00:04:24.648Z,100.00
2022-10-29T00:05:29.290Z,100.00
2022-10-29T00:06:31.329Z,100.00
2022-10-29T00:07:35.966Z,100.00
2022-10-29T00:08:39.864Z,100.00
2022-10-29T00:09:44.562Z,100.00
2022-10-29T00:10:46.555Z,100.00
2022-10-29T00:11:51.172Z,100.00
2022-10-29T00:12:53.417Z,100.00
2022-10-29T00:14:00.080Z,100.00
2022-10-29T00:15:02.238Z,100.00
2022-10-29T00:16:11.565Z,100.00
2022-10-29T00:17:16.215Z,100.00
2022-10-29T00:18:20.831Z,100.00
2022-10-29T00:19:22.927Z,100.00
2022-10-29T00:20:27.588Z,100.00
2022-10-29T00:21:29.781Z,100.00
2022-10-29T00:22:34.435Z,100.00
2022-10-29T00:23:36.528Z,100.00
2022-10-29T00:24:41.158Z,100.00
2022-10-29T00:25:43.190Z,100.00
2022-10-29T00:26:47.999Z,100.00
2022-10-29T00:27:50.045Z,100.00
2022-10-29T00:28:56.097Z,100.00
2022-10-29T00:29:58.230Z,100.00
2022-10-29T00:31:05.596Z,100.00
2022-10-29T00:32:07.788Z,100.00
2022-10-29T00:33:16.616Z,100.00
2022-10-29T00:34:18.730Z,100.00
2022-10-29T00:35:23.358Z,100.00
2022-10-29T00:36:27.853Z,100.00
2022-10-29T00:37:32.481Z,100.00
2022-10-29T00:38:35.536Z,100.00
2022-10-29T00:39:40.184Z,100.00
2022-10-29T00:40:42.205Z,100.00
2022-10-29T00:41:47.050Z,100.00
2022-10-29T00:42:49.093Z,100.00
2022-10-29T00:43:55.447Z,100.00
2022-10-29T00:45:00.092Z,100.00
2022-10-29T00:46:06.887Z,100.00
2022-10-29T00:47:23.179Z,100.00
2022-10-29T00:48:32.378Z,100.00
2022-10-29T00:49:38.453Z,100.00
2022-10-29T00:50:40.621Z,100.00
2022-10-29T00:51:46.975Z,100.00
2022-10-29T00:52:53.626Z,100.00
2022-10-29T00:54:00.044Z,100.00
2022-10-29T00:55:08.775Z,100.00
2022-10-29T00:56:11.584Z,100.00
2022-10-29T00:57:19.788Z,100.00
2022-10-29T00:58:22.474Z,100.00
2022-10-29T00:59:27.640Z,100.00
2022-10-29T01:04:01.932Z,100.00
2022-10-29T01:06:17.133Z,100.00
2022-10-29T01:07:19.888Z,100.00
2022-10-29T01:08:25.499Z,100.00
2022-10-29T01:09:27.596Z,100.00
2022-10-29T01:10:43.567Z,100.00
2022-10-29T01:11:56.589Z,100.00
2022-10-29T01:13:14.285Z,100.00
2022-10-29T01:14:27.733Z,100.00
2022-10-29T01:15:43.653Z,100.00
2022-10-29T01:16:52.059Z,100.00
2022-10-29T01:18:09.265Z,100.00
2022-10-29T01:19:29.506Z,100.00
2022-10-29T01:21:01.482Z,100.00
2022-10-29T01:22:14.082Z,100.00
2022-10-29T01:23:38.799Z,100.00
2022-10-29T01:24:57.849Z,100.00
2022-10-29T01:26:25.473Z,100.00
2022-10-29T01:27:54.803Z,100.00
2022-10-29T01:29:13.084Z,100.00
2022-10-29T01:30:24.685Z,100.00
2022-10-29T01:31:32.385Z,100.00
2022-10-29T01:32:46.105Z,100.00
2022-10-29T01:33:55.273Z,100.00
2022-10-29T01:35:05.746Z,100.00
2022-10-29T01:36:18.035Z,100.00
2022-10-29T01:37:29.395Z,100.00
2022-10-29T01:38:38.607Z,100.00
2022-10-29T01:39:47.798Z,100.00
2022-10-29T01:40:58.805Z,100.00
2022-10-29T01:42:07.441Z,100.00
2022-10-29T01:43:14.770Z,100.00
2022-10-29T01:44:32.115Z,100.00
2022-10-29T01:45:38.202Z,100.00
2022-10-29T01:46:49.749Z,100.00
2022-10-29T01:47:58.427Z,100.00
2022-10-29T01:49:10.226Z,100.00
2022-10-29T01:50:17.800Z,100.00
2022-10-29T01:51:25.593Z,100.00
2022-10-29T01:52:32.605Z,100.00
2022-10-29T01:53:39.115Z,100.00
2022-10-29T01:54:42.652Z,100.00
2022-10-29T01:55:47.398Z,100.00
2022-10-29T01:56:54.872Z,100.00
2022-10-29T01:57:59.871Z,100.00
2022-10-29T01:59:05.711Z,100.00
2022-10-29T02:00:13.883Z,100.00
2022-10-29T02:01:33.697Z,100.00
2022-10-29T02:02:55.679Z,100.00
2022-10-29T02:04:01.741Z,100.00
2022-10-29T02:05:14.766Z,100.00
2022-10-29T02:06:26.237Z,100.00
2022-10-29T02:07:41.978Z,100.00
2022-10-29T02:08:54.556Z,100.00
2022-10-29T02:10:06.316Z,100.00
2022-10-29T02:11:16.037Z,100.00
2022-10-29T02:12:26.589Z,100.00
2022-10-29T02:13:32.123Z,100.00
2022-10-29T02:14:41.320Z,100.00
2022-10-29T02:15:48.461Z,100.00
2022-10-29T02:16:55.359Z,100.00
2022-10-29T02:18:03.279Z,100.00
2022-10-29T02:19:08.770Z,100.00
2022-10-29T02:20:13.503Z,100.00
2022-10-29T02:21:18.965Z,100.00
2022-10-29T02:22:21.058Z,100.00
2022-10-29T02:23:25.882Z,100.00
2022-10-29T02:24:27.999Z,100.00
2022-10-29T02:25:32.749Z,100.00
2022-10-29T02:26:34.858Z,100.00
2022-10-29T02:27:39.706Z,100.00
2022-10-29T02:28:41.902Z,100.00
2022-10-29T02:29:46.617Z,100.00
2022-10-29T02:30:48.721Z,100.00
2022-10-29T02:31:53.471Z,100.00
2022-10-29T02:32:55.885Z,100.00
2022-10-29T02:34:03.424Z,100.00
2022-10-29T02:35:06.669Z,100.00
2022-10-29T02:36:11.883Z,100.00
2022-10-29T02:37:17.107Z,100.00
2022-10-29T02:38:21.827Z,100.00
2022-10-29T02:39:23.992Z,100.00
2022-10-29T02:40:28.665Z,100.00
2022-10-29T02:41:30.801Z,100.00
2022-10-29T02:42:35.609Z,100.00
2022-10-29T02:43:37.714Z,100.00
2022-10-29T02:44:42.437Z,100.00
2022-10-29T02:45:44.629Z,100.00
2022-10-29T02:46:49.448Z,100.00
2022-10-29T02:47:51.540Z,100.00
2022-10-29T02:48:56.314Z,100.00
2022-10-29T02:50:00.980Z,100.00
2022-10-29T02:51:05.802Z,100.00
2022-10-29T02:52:07.984Z,100.00
2022-10-29T02:53:12.763Z,100.00
2022-10-29T02:54:14.869Z,100.00
2022-10-29T02:55:19.602Z,100.00
2022-10-29T02:56:21.753Z,100.00
2022-10-29T02:57:26.451Z,100.00
2022-10-29T02:58:28.534Z,100.00
2022-10-29T02:59:33.223Z,100.00
2022-10-29T03:00:35.312Z,100.00
2022-10-29T03:01:40.111Z,100.00
2022-10-29T03:02:42.386Z,100.00
2022-10-29T03:03:47.272Z,100.00
2022-10-29T03:04:49.404Z,100.00
2022-10-29T03:05:56.773Z,100.00
2022-10-29T03:06:59.213Z,100.00
2022-10-29T03:08:04.249Z,100.00
2022-10-29T03:09:06.600Z,100.00
2022-10-29T03:10:11.937Z,100.00
2022-10-29T03:11:14.201Z,100.00
2022-10-29T03:12:19.124Z,100.00
2022-10-29T03:13:21.214Z,100.00
2022-10-29T03:14:26.081Z,100.00
2022-10-29T03:15:28.816Z,100.00
2022-10-29T03:16:33.481Z,100.00
2022-10-29T03:17:35.589Z,100.00
2022-10-29T03:18:40.504Z,100.00
2022-10-29T03:19:42.616Z,100.00
2022-10-29T03:20:48.258Z,100.00
2022-10-29T03:21:55.563Z,100.00
2022-10-29T03:22:57.683Z,100.00
2022-10-29T03:24:02.953Z,100.00
2022-10-29T03:25:05.874Z,100.00
2022-10-29T03:26:12.088Z,100.00
2022-10-29T03:27:14.210Z,100.00
2022-10-29T03:28:18.919Z,100.00
2022-10-29T03:29:21.113Z,100.00
2022-10-29T03:30:25.801Z,100.00
2022-10-29T03:31:30.524Z,100.00
2022-10-29T03:32:32.584Z,100.00
2022-10-29T03:33:38.672Z,100.00
2022-10-29T03:34:40.805Z,100.00
2022-10-29T03:35:45.613Z,100.00
2022-10-29T03:36:51.197Z,100.00
2022-10-29T03:37:56.042Z,100.00
2022-10-29T03:39:00.783Z,100.00
2022-10-29T03:40:03.100Z,100.00
2022-10-29T03:41:10.672Z,100.00
2022-10-29T03:42:13.025Z,100.00
2022-10-29T03:43:18.052Z,100.00
2022-10-29T03:44:20.211Z,100.00
2022-10-29T03:45:25.164Z,100.00
2022-10-29T03:46:27.287Z,100.00
2022-10-29T03:47:32.411Z,100.00
2022-10-29T03:48:34.635Z,100.00
2022-10-29T03:49:39.386Z,100.00
2022-10-29T03:50:41.494Z,100.00
2022-10-29T03:51:46.794Z,100.00
2022-10-29T03:52:48.983Z,100.00
2022-10-29T03:53:56.309Z,100.00
2022-10-29T03:54:58.392Z,100.00
2022-10-29T03:56:03.091Z,100.00
2022-10-29T03:57:05.193Z,100.00
2022-10-29T03:58:09.924Z,100.00
2022-10-29T03:59:12.072Z,100.00
2022-10-29T04:00:18.049Z,100.00
2022-10-29T04:01:20.209Z,100.00
2022-10-29T04:02:25.250Z,100.00
2022-10-29T04:03:29.714Z,100.00
2022-10-29T04:04:34.471Z,100.00
2022-10-29T04:05:36.556Z,100.00
2022-10-29T04:06:41.303Z,100.00
2022-10-29T04:07:43.417Z,100.00
2022-10-29T04:08:48.513Z,100.00
2022-10-29T04:09:53.150Z,100.00
2022-10-29T04:10:58.032Z,100.00
2022-10-29T04:12:01.191Z,100.00
2022-10-29T04:13:05.994Z,100.00
2022-10-29T04:14:08.361Z,100.00
2022-10-29T04:15:13.796Z,100.00
2022-10-29T04:16:15.897Z,100.00
2022-10-29T04:17:20.658Z,100.00
2022-10-29T04:18:23.208Z,100.00
2022-10-29T04:19:27.933Z,100.00
2022-10-29T04:21:05.631Z,100.00
2022-10-29T12:12:13.685Z,32.43
2022-10-29T12:13:28.399Z,31.17
2022-10-29T12:14:42.710Z,31.34
2022-10-29T12:15:53.663Z,31.58
2022-10-29T12:17:06.547Z,30.82
2022-10-29T12:18:29.994Z,31.74
2022-10-29T12:19:45.205Z,32.05
2022-10-29T12:20:52.339Z,32.36
2022-10-29T12:22:04.991Z,32.04
2022-10-29T12:23:25.330Z,32.95
2022-10-29T12:24:48.862Z,31.65
2022-10-29T12:25:59.701Z,30.79
2022-10-29T12:27:15.481Z,28.81
2022-10-29T12:28:27.209Z,29.90
2022-10-29T12:29:44.349Z,27.88
2022-10-29T12:31:06.824Z,27.06
2022-10-29T12:32:27.333Z,25.34
2022-10-29T12:33:46.598Z,27.00
2022-10-29T12:34:56.306Z,25.92
2022-10-29T12:36:07.887Z,26.50
2022-10-29T12:37:17.132Z,27.80
2022-10-29T12:38:37.122Z,26.42
2022-10-29T12:39:51.729Z,26.56
2022-10-29T12:41:04.358Z,26.12
2022-10-29T12:42:19.596Z,27.77
2022-10-29T12:43:29.486Z,25.61
2022-10-29T12:44:45.282Z,26.04
2022-10-29T12:47:28.353Z,31.45
2022-10-29T12:48:40.710Z,29.41
2022-10-29T12:49:56.339Z,28.32
2022-10-29T12:51:05.979Z,28.07
2022-10-29T12:52:16.692Z,27.79
2022-10-29T12:53:32.189Z,25.84
2022-10-29T12:54:42.186Z,25.17
2022-10-29T12:55:46.830Z,26.25
2022-10-29T12:56:51.970Z,27.71
2022-10-29T12:57:56.966Z,28.47
2022-10-29T12:59:31.329Z,27.97
2022-10-29T13:00:46.054Z,26.09
2022-10-29T13:02:11.028Z,25.47
2022-10-29T13:03:16.201Z,28.33
2022-10-29T13:04:29.545Z,29.55
2022-10-29T13:05:45.654Z,28.10
2022-10-29T13:06:56.398Z,25.38
2022-10-29T13:08:34.210Z,26.64
2022-10-29T13:09:43.061Z,27.40
2022-10-29T13:10:52.056Z,25.54
2022-10-29T13:11:58.857Z,25.67
2022-10-29T13:13:02.988Z,28.05
2022-10-29T13:14:10.570Z,26.19
2022-10-29T13:15:19.881Z,26.97
2022-10-29T13:16:30.767Z,25.73
2022-10-29T13:17:39.098Z,25.97
2022-10-29T13:18:49.718Z,26.09
2022-10-29T13:19:59.727Z,25.70
2022-10-29T13:21:02.229Z,25.71
2022-10-29T13:22:30.228Z,24.45
2022-10-29T13:23:35.325Z,26.86
2022-10-29T13:24:40.060Z,27.54
2022-10-29T13:25:48.861Z,26.99
2022-10-29T13:27:12.903Z,26.53
2022-10-29T13:28:45.008Z,26.20
2022-10-29T13:29:52.541Z,25.91
2022-10-29T13:31:32.254Z,26.36
2022-10-29T13:32:39.241Z,27.39
2022-10-29T13:33:50.751Z,27.46
2022-10-29T13:34:55.770Z,27.68
2022-10-29T13:36:02.199Z,28.42
2022-10-29T13:37:49.079Z,28.71
2022-10-29T13:39:07.858Z,28.44
2022-10-29T13:40:40.371Z,27.86
2022-10-29T13:41:51.659Z,28.38
2022-10-29T13:43:00.455Z,27.75
2022-10-29T13:44:08.835Z,27.64
2022-10-29T13:45:14.176Z,26.70
2022-10-29T13:46:34.919Z,27.14
2022-10-29T13:47:42.479Z,26.79
2022-10-29T13:48:46.171Z,27.36
2022-10-29T13:49:52.645Z,26.64
2022-10-29T13:50:57.862Z,26.44
2022-10-29T13:52:05.869Z,26.85
2022-10-29T13:53:14.332Z,26.60
2022-10-29T13:55:32.564Z,28.22
2022-10-29T13:56:44.667Z,28.60
2022-10-29T13:57:59.876Z,27.98
2022-10-29T13:59:09.994Z,27.74
2022-10-29T14:00:22.006Z,27.89
2022-10-29T14:01:29.314Z,28.08
2022-10-29T14:02:53.128Z,28.11
2022-10-29T14:04:01.704Z,29.15
2022-10-29T14:05:15.905Z,30.25
2022-10-29T14:06:23.578Z,29.50
2022-10-29T14:07:33.928Z,30.31
2022-10-29T14:08:40.993Z,30.12
2022-10-29T14:10:10.821Z,29.06
2022-10-29T14:11:17.578Z,29.76
2022-10-29T14:12:27.400Z,28.51
2022-10-29T14:13:35.395Z,28.77
2022-10-29T14:14:47.508Z,29.02
2022-10-29T14:16:04.039Z,29.70
2022-10-29T14:17:13.519Z,30.46
2022-10-29T14:18:21.761Z,29.15
2022-10-29T14:19:26.529Z,30.06
2022-10-29T14:20:29.896Z,30.17
2022-10-29T14:21:41.138Z,30.82
2022-10-29T14:22:48.190Z,30.91
2022-10-29T14:23:58.495Z,30.51
2022-10-29T14:25:04.877Z,31.53
2022-10-29T14:27:22.035Z,31.13
2022-10-29T14:28:28.296Z,30.39
2022-10-29T14:29:30.460Z,31.19
2022-10-29T14:30:35.160Z,31.72
2022-10-29T14:31:40.065Z,31.97
2022-10-29T14:32:46.589Z,32.37
2022-10-29T14:33:58.680Z,32.48
2022-10-29T14:35:00.914Z,33.17
2022-10-29T14:36:19.219Z,33.41
2022-10-29T14:37:30.631Z,33.36
2022-10-29T14:38:39.443Z,33.59
2022-10-29T14:39:57.959Z,33.71
2022-10-29T14:41:04.231Z,33.81
2022-10-29T14:42:16.876Z,34.66
2022-10-29T14:43:24.502Z,35.57
2022-10-29T14:44:32.916Z,35.72
2022-10-29T14:45:35.053Z,35.13
2022-10-29T14:46:41.650Z,36.17
2022-10-29T14:47:50.571Z,36.71
2022-10-29T14:49:09.672Z,36.63
2022-10-29T14:50:21.491Z,37.95
2022-10-29T14:51:24.675Z,38.13
2022-10-29T14:52:33.141Z,39.43
2022-10-29T14:53:38.938Z,40.20
2022-10-29T14:54:45.060Z,41.13
2022-10-29T14:55:49.707Z,41.49
2022-10-29T14:56:58.701Z,42.13
2022-10-29T14:58:05.458Z,42.60
2022-10-29T14:59:24.913Z,43.57
2022-10-29T15:00:35.894Z,43.54
2022-10-29T15:01:46.930Z,44.73
2022-10-29T15:02:56.784Z,44.91
2022-10-29T15:04:02.084Z,46.12
2022-10-29T15:05:08.899Z,47.39
2022-10-29T15:06:14.817Z,46.73
2022-10-29T15:07:32.122Z,48.25
2022-10-29T15:08:39.313Z,49.77
2022-10-29T15:09:44.342Z,51.75
2022-10-29T15:10:48.191Z,51.96
2022-10-29T15:12:02.911Z,54.02
2022-10-29T15:13:23.790Z,55.39
2022-10-29T15:14:33.422Z,56.00
2022-10-29T15:15:39.929Z,56.34
2022-10-29T15:16:47.385Z,59.88
2022-10-29T15:17:59.403Z,59.33
2022-10-29T15:19:02.208Z,60.28
2022-10-29T15:20:09.650Z,65.01
2022-10-29T15:21:14.372Z,65.46
2022-10-29T15:22:21.280Z,65.31
2022-10-29T15:23:29.633Z,65.26
2022-10-29T15:24:31.847Z,66.96
2022-10-29T15:25:39.777Z,67.29
2022-10-29T15:26:49.163Z,71.56
2022-10-29T15:27:52.690Z,73.15
2022-10-29T15:28:59.532Z,71.61
2022-10-29T15:30:01.974Z,71.30
2022-10-29T15:31:07.687Z,72.44
2022-10-29T15:32:15.015Z,75.71
2022-10-29T15:33:27.950Z,77.04
2022-10-29T15:34:32.900Z,80.45
2022-10-29T15:35:39.257Z,79.71
2022-10-29T15:36:49.184Z,83.22
2022-10-29T15:37:54.057Z,86.75
2022-10-29T15:39:20.755Z,86.42
2022-10-29T15:40:27.225Z,84.99
2022-10-29T15:41:38.134Z,87.93
2022-10-29T15:42:43.209Z,88.33
2022-10-29T15:43:50.040Z,89.19
2022-10-29T15:45:21.747Z,92.44
2022-10-29T15:46:26.797Z,92.58
2022-10-29T15:47:32.163Z,93.22
2022-10-29T15:48:38.276Z,89.60
2022-10-29T15:49:43.184Z,92.61
2022-10-29T15:50:49.185Z,93.42
2022-10-29T15:51:51.502Z,93.22
2022-10-29T15:52:59.389Z,94.69
2022-10-29T15:54:03.345Z,96.03
2022-10-29T15:55:13.709Z,95.88
2022-10-29T15:56:18.677Z,97.64
2022-10-29T15:57:20.779Z,97.94
2022-10-29T15:58:26.184Z,98.84
2022-10-29T15:59:28.382Z,98.71
2022-10-29T16:00:33.672Z,99.35
2022-10-29T16:01:36.136Z,100.00
2022-10-29T16:02:41.018Z,100.00
2022-10-29T16:03:48.598Z,100.00
2022-10-29T16:04:50.907Z,100.00
2022-10-29T16:05:58.688Z,100.00
2022-10-29T16:07:00.962Z,100.00
2022-10-29T16:08:06.581Z,100.00
2022-10-29T16:09:16.424Z,100.00
2022-10-29T16:10:23.631Z,100.00
2022-10-29T16:11:27.018Z,100.00
2022-10-29T16:12:31.803Z,100.00
2022-10-29T16:13:35.007Z,100.00
2022-10-29T16:14:39.883Z,100.00
2022-10-29T16:15:44.611Z,100.00
2022-10-29T16:16:46.796Z,100.00
2022-10-29T16:17:51.630Z,100.00
2022-10-29T16:18:56.457Z,100.00
2022-10-29T16:20:01.363Z,100.00
2022-10-29T16:21:09.546Z,100.00
2022-10-29T16:22:17.350Z,100.00
2022-10-29T16:23:19.568Z,100.00
2022-10-29T16:24:24.571Z,100.00
2022-10-29T16:25:31.156Z,100.00
2022-10-29T16:26:33.296Z,100.00
2022-10-29T16:27:38.195Z,100.00
2022-10-29T16:28:40.351Z,100.00
2022-10-29T16:29:47.156Z,100.00
2022-10-29T16:30:56.647Z,100.00
2022-10-29T16:31:58.983Z,100.00
2022-10-29T16:33:04.479Z,100.00
2022-10-29T16:34:13.732Z,100.00
2022-10-29T16:35:22.790Z,100.00
2022-10-29T16:36:25.168Z,100.00
2022-10-29T16:37:29.939Z,100.00
2022-10-29T16:38:34.722Z,100.00
2022-10-29T16:39:39.486Z,100.00
2022-10-29T16:40:44.269Z,100.00
2022-10-29T16:41:49.005Z,100.00
2022-10-29T16:42:55.298Z,100.00
2022-10-29T16:43:57.859Z,100.00
2022-10-29T16:45:02.635Z,100.00
2022-10-29T16:46:05.648Z,100.00
2022-10-29T16:47:10.645Z,100.00
2022-10-29T16:48:15.380Z,100.00
2022-10-29T16:49:20.124Z,100.00
2022-10-29T16:50:27.601Z,100.00
2022-10-29T16:51:29.757Z,100.00
2022-10-29T16:52:34.524Z,100.00
2022-10-29T16:53:39.348Z,100.00
2022-10-29T16:54:41.644Z,100.00
2022-10-29T16:55:46.351Z,100.00
2022-10-29T16:56:50.544Z,100.00
2022-10-29T16:57:55.602Z,100.00
2022-10-29T16:59:01.826Z,100.00
2022-10-29T17:00:09.425Z,100.00
2022-10-29T17:01:14.335Z,100.00
2022-10-29T17:02:16.619Z,100.00
2022-10-29T17:03:21.559Z,100.00
2022-10-29T17:04:26.362Z,100.00
2022-10-29T17:05:31.271Z,100.00
2022-10-29T17:06:33.350Z,100.00
2022-10-29T17:07:38.089Z,100.00
2022-10-29T17:08:40.786Z,100.00
2022-10-29T17:09:45.507Z,100.00
2022-10-29T17:10:47.614Z,100.00
2022-10-29T17:11:52.572Z,100.00
2022-10-29T17:12:55.086Z,100.00
2022-10-29T17:14:00.030Z,100.00
2022-10-29T17:15:02.247Z,100.00
2022-10-29T17:16:10.185Z,100.00
2022-10-29T17:17:12.380Z,100.00
2022-10-29T17:18:17.367Z,100.00
2022-10-29T17:19:19.531Z,100.00
2022-10-29T17:20:27.091Z,100.00
2022-10-29T17:21:30.408Z,100.00
2022-10-29T17:22:35.122Z,100.00
2022-10-29T17:23:39.876Z,100.00
2022-10-29T17:24:42.404Z,100.00
2022-10-29T17:25:48.853Z,100.00
2022-10-29T17:26:54.658Z,100.00
2022-10-29T17:28:00.016Z,100.00
2022-10-29T17:29:02.351Z,100.00
2022-10-29T17:30:08.174Z,100.00
2022-10-29T17:31:11.610Z,100.00
2022-10-29T17:32:20.943Z,100.00
2022-10-29T17:33:25.880Z,100.00
2022-10-29T17:34:42.093Z,100.00
2022-10-29T17:35:47.053Z,100.00
2022-10-29T17:36:53.491Z,100.00
2022-10-29T17:37:55.637Z,100.00
2022-10-29T17:39:00.353Z,100.00
2022-10-29T17:40:06.779Z,100.00
2022-10-29T17:41:13.087Z,100.00
2022-10-29T17:42:17.914Z,100.00
2022-10-29T17:43:20.269Z,100.00
2022-10-29T17:44:26.494Z,100.00
2022-10-29T17:45:28.839Z,100.00
2022-10-29T17:46:33.694Z,100.00
2022-10-29T17:47:35.882Z,100.00
2022-10-29T17:48:42.351Z,100.00
2022-10-29T17:49:44.548Z,100.00
2022-10-29T17:50:58.680Z,100.00
2022-10-29T17:52:00.793Z,100.00
2022-10-29T17:53:05.927Z,100.00
2022-10-29T17:54:08.108Z,100.00
2022-10-29T17:55:12.934Z,100.00
2022-10-29T17:56:15.226Z,100.00
2022-10-29T17:57:22.241Z,100.00
2022-10-29T17:58:24.578Z,100.00
2022-10-29T17:59:29.453Z,100.00
2022-10-29T18:00:31.573Z,100.00
2022-10-29T18:01:36.627Z,100.00
2022-10-29T18:02:38.921Z,100.00
2022-10-29T18:03:44.146Z,100.00
2022-10-29T18:04:46.588Z,100.00
2022-10-29T18:05:51.327Z,100.00
2022-10-29T18:06:56.302Z,100.00
2022-10-29T18:08:01.106Z,100.00
2022-10-29T18:09:07.031Z,100.00
2022-10-29T18:10:12.293Z,100.00
2022-10-29T18:11:17.317Z,100.00
2022-10-29T18:12:22.053Z,100.00
2022-10-29T18:13:24.338Z,100.00
2022-10-29T18:14:29.193Z,100.00
2022-10-29T18:15:31.419Z,100.00
2022-10-29T18:16:36.130Z,100.00
2022-10-29T18:17:38.324Z,100.00
2022-10-29T18:19:00.634Z,100.00
2022-10-29T18:20:08.461Z,100.00
2022-10-29T18:21:13.272Z,100.00
2022-10-29T18:22:20.743Z,100.00
2022-10-29T18:23:23.025Z,100.00
2022-10-29T18:24:27.865Z,100.00
2022-10-29T18:25:30.150Z,100.00
2022-10-29T18:26:36.919Z,100.00
2022-10-29T18:27:39.678Z,100.00
2022-10-29T18:28:44.633Z,100.00
2022-10-29T18:29:49.563Z,100.00
2022-10-29T18:30:51.728Z,100.00
2022-10-29T18:31:56.565Z,100.00
2022-10-29T18:33:01.729Z,100.00
2022-10-29T18:34:07.234Z,100.00
2022-10-29T18:35:13.080Z,100.00
2022-10-29T18:36:18.069Z,100.00
2022-10-29T18:37:25.958Z,100.00
2022-10-29T18:38:30.735Z,100.00
2022-10-29T18:39:36.224Z,100.00
2022-10-29T18:40:38.333Z,100.00
2022-10-29T18:41:43.364Z,100.00
2022-10-29T18:42:48.707Z,100.00
2022-10-29T18:43:51.498Z,100.00
2022-10-29T18:44:56.221Z,100.00
2022-10-29T18:45:59.306Z,100.00
2022-10-29T18:47:04.034Z,100.00
2022-10-29T18:48:06.753Z,100.00
2022-10-29T18:49:13.209Z,100.00
2022-10-29T18:50:15.566Z,100.00
2022-10-29T18:51:24.430Z,100.00
2022-10-29T18:52:31.945Z,100.00
2022-10-29T18:53:35.573Z,100.00
2022-10-29T18:54:41.113Z,100.00
2022-10-29T18:55:49.188Z,100.00
2022-10-29T18:56:54.178Z,100.00
2022-10-29T18:57:58.878Z,100.00
2022-10-29T18:59:03.800Z,100.00
2022-10-29T19:00:10.135Z,100.00
2022-10-29T19:01:19.833Z,100.00
2022-10-29T19:02:22.181Z,100.00
2022-10-29T19:04:33.324Z,100.00
2022-10-29T19:05:35.893Z,100.00
2022-10-29T19:06:40.946Z,100.00
2022-10-29T19:07:45.742Z,100.00
2022-10-29T19:08:51.083Z,100.00
2022-10-29T19:09:55.909Z,100.00
2022-10-29T19:11:01.989Z,100.00
2022-10-29T19:12:07.113Z,100.00
2022-10-29T19:13:09.803Z,100.00
2022-10-29T19:14:16.730Z,100.00
2022-10-29T19:15:18.965Z,100.00
2022-10-29T19:16:28.217Z,100.00
2022-10-29T19:17:34.495Z,100.00
2022-10-29T19:18:38.308Z,100.00
2022-10-29T19:19:43.168Z,100.00
2022-10-29T19:20:45.474Z,100.00
2022-10-29T19:21:50.332Z,100.00
2022-10-29T19:22:55.763Z,100.00
2022-10-29T19:24:02.323Z,100.00
2022-10-29T19:25:08.209Z,100.00
2022-10-29T19:26:12.350Z,100.00
2022-10-29T19:27:17.274Z,100.00
2022-10-29T19:28:19.485Z,100.00
2022-10-29T19:29:24.296Z,100.00
2022-10-29T19:30:29.215Z,100.00
2022-10-29T19:31:32.826Z,100.00
2022-10-29T19:32:37.585Z,100.00
2022-10-29T19:33:42.765Z,100.00
2022-10-29T19:34:47.519Z,100.00
2022-10-29T19:35:50.012Z,100.00
2022-10-29T19:36:55.021Z,100.00
2022-10-29T19:38:02.400Z,100.00
2022-10-29T19:39:05.152Z,100.00
2022-10-29T19:40:11.865Z,100.00
2022-10-29T19:41:14.910Z,100.00
2022-10-29T19:42:19.902Z,100.00
2022-10-29T19:43:24.918Z,100.00
2022-10-29T19:44:29.826Z,100.00
2022-10-29T19:45:34.598Z,100.00
2022-10-29T19:46:39.518Z,100.00
2022-10-29T19:47:41.734Z,100.00
2022-10-29T19:48:51.079Z,100.00
2022-10-29T19:49:53.286Z,100.00
2022-10-29T19:50:58.813Z,100.00
2022-10-29T19:52:03.710Z,100.00
2022-10-29T19:53:08.614Z,100.00
2022-10-29T19:54:13.399Z,100.00
2022-10-29T19:55:16.472Z,100.00
2022-10-29T19:56:22.007Z,100.00
2022-10-29T19:57:24.305Z,100.00
2022-10-29T19:58:31.588Z,100.00
2022-10-29T19:59:36.570Z,100.00
2022-10-29T20:00:38.881Z,100.00
2022-10-29T20:01:44.409Z,100.00
2022-10-29T20:02:46.799Z,100.00
2022-10-29T20:03:51.629Z,100.00
2022-10-29T20:04:53.823Z,100.00
2022-10-29T20:05:58.886Z,100.00
2022-10-29T20:07:03.641Z,100.00
2022-10-29T20:08:11.440Z,100.00
2022-10-29T20:09:19.632Z,100.00
2022-10-29T20:10:22.012Z,100.00
2022-10-29T20:11:26.779Z,100.00
2022-10-29T20:12:28.964Z,100.00
2022-10-29T20:13:33.831Z,100.00
2022-10-29T20:14:36.053Z,100.00
2022-10-29T20:15:42.023Z,100.00
2022-10-29T20:16:44.148Z,100.00
2022-10-29T20:17:48.869Z,100.00
2022-10-29T20:18:51.409Z,100.00
2022-10-29T20:19:56.207Z,100.00
2022-10-29T20:20:58.386Z,100.00
2022-10-29T20:22:03.100Z,100.00
2022-10-29T20:23:07.841Z,100.00
2022-10-29T20:24:12.709Z,100.00
2022-10-29T20:25:15.363Z,100.00
2022-10-29T20:26:22.660Z,100.00
2022-10-29T20:27:24.796Z,100.00
2022-10-29T20:28:29.600Z,100.00
2022-10-29T20:29:34.363Z,100.00
2022-10-29T20:30:36.616Z,100.00
2022-10-29T20:31:41.746Z,100.00
2022-10-29T20:32:43.930Z,100.00
2022-10-29T20:33:52.200Z,100.00
2022-10-29T20:34:57.075Z,100.00
2022-10-29T20:35:59.359Z,100.00
2022-10-29T20:37:04.214Z,100.00
2022-10-29T20:38:09.417Z,100.00
2022-10-29T20:39:14.283Z,100.00
2022-10-29T20:40:16.584Z,100.00
2022-10-29T20:41:33.802Z,100.00
2022-10-29T20:42:46.334Z,100.00
2022-10-29T20:43:53.183Z,100.00
2022-10-29T20:44:58.076Z,100.00
2022-10-29T20:46:01.231Z,100.00
2022-10-29T20:47:06.002Z,100.00
2022-10-29T20:48:08.180Z,100.00
2022-10-29T20:49:13.134Z,100.00
2022-10-29T20:50:15.681Z,100.00
2022-10-29T20:51:20.515Z,100.00
2022-10-29T20:52:22.942Z,100.00
2022-10-29T20:53:30.411Z,100.00
2022-10-29T20:54:32.578Z,100.00
2022-10-29T20:55:37.356Z,100.00
2022-10-29T20:56:42.178Z,100.00
2022-10-29T20:57:44.380Z,100.00
2022-10-29T20:58:49.160Z,100.00
2022-10-29T20:59:51.256Z,100.00
2022-10-29T21:00:56.072Z,100.00
2022-10-29T21:01:58.678Z,100.00
2022-10-29T21:03:03.628Z,100.00
2022-10-29T21:04:08.668Z,100.00
2022-10-29T21:05:10.827Z,100.00
2022-10-29T21:06:17.500Z,100.00
2022-10-29T21:07:20.168Z,100.00
2022-10-29T21:08:25.020Z,100.00
2022-10-29T21:09:30.028Z,100.00
2022-10-29T21:10:34.971Z,100.00
2022-10-29T21:11:39.788Z,100.00
2022-10-29T21:12:44.608Z,100.00
2022-10-29T21:13:46.955Z,100.00
2022-10-29T21:14:51.791Z,100.00
2022-10-29T21:15:54.213Z,100.00
2022-10-29T21:16:59.083Z,100.00
2022-10-29T21:18:01.183Z,100.00
2022-10-29T21:19:08.711Z,100.00
2022-10-29T21:20:11.198Z,100.00
2022-10-29T21:21:16.147Z,100.00
2022-10-29T21:22:21.573Z,100.00
2022-10-29T21:23:24.095Z,100.00
2022-10-29T21:24:29.057Z,100.00
2022-10-29T21:25:33.897Z,100.00
2022-10-29T21:26:39.269Z,100.00
2022-10-29T21:27:51.120Z,100.00
2022-10-29T21:29:05.949Z,100.00
2022-10-29T21:30:19.547Z,100.00
2022-10-29T21:31:30.952Z,100.00
2022-10-29T21:32:41.278Z,100.00
2022-10-29T21:34:02.251Z,100.00
2022-10-29T21:35:07.892Z,100.00
2022-10-29T21:36:18.496Z,100.00
2022-10-29T21:37:24.561Z,100.00
2022-10-29T21:38:55.623Z,100.00
2022-10-29T21:40:22.407Z,100.00
2022-10-29T21:41:52.201Z,100.00
2022-10-29T21:43:08.446Z,100.00
2022-10-29T21:44:19.665Z,100.00
2022-10-29T21:45:33.441Z,100.00
2022-10-29T21:46:38.859Z,100.00
2022-10-29T21:47:45.306Z,100.00
2022-10-29T21:49:03.671Z,100.00
2022-10-29T21:50:11.826Z,100.00
2022-10-29T21:51:37.892Z,100.00
2022-10-29T21:54:19.367Z,100.00
2022-10-29T21:55:26.061Z,100.00
2022-10-29T21:56:32.732Z,100.00
2022-10-29T21:57:46.513Z,100.00
2022-10-29T21:58:57.957Z,100.00
2022-10-29T22:01:44.502Z,100.00
2022-10-29T22:03:13.396Z,100.00
2022-10-29T22:04:26.304Z,100.00
2022-10-29T22:05:51.371Z,100.00
2022-10-29T22:07:17.332Z,100.00